Time;durP1;ratioP1;P1;durP2;ratioP2;P2;SDS_P1;SDS_P2;PMS_P1;PMS_P2;Temp;Humidity;BMP_temperature;BMP_pressure;BME280_temperature;BME280_humidity;BME280_pressure;Samples;Min_cycle;Max_cycle;Signal;HPM_P1;HPM_P2
2022/08/11 00:00:43;;;;;;;2.30;2.10;;;23.90;90.10;;;;;;6172163;23;20406;-93
2022/08/11 00:03:12;;;;;;;3.10;2.50;;;23.90;90.20;;;;;;6160613;23;20452;-96
2022/08/11 00:05:52;;;;;;;3.50;2.10;;;23.80;90.30;;;;;;6160290;23;20434;-93
2022/08/11 00:08:24;;;;;;;2.30;2.10;;;23.80;90.40;;;;;;6160669;23;20395;-94
2022/08/11 00:10:57;;;;;;;2.00;1.80;;;23.80;90.40;;;;;;6160610;23;20405;-96
2022/08/11 00:13:34;;;;;;;1.87;1.70;;;23.80;90.20;;;;;;6159633;23;20473;-93
2022/08/11 00:16:03;;;;;;;1.80;1.70;;;23.70;90.00;;;;;;6160400;23;20389;-92
2022/08/11 00:18:38;;;;;;;2.80;2.20;;;23.70;89.70;;;;;;6159615;23;20394;-96
2022/08/11 00:21:04;;;;;;;2.40;2.20;;;23.60;89.60;;;;;;6158636;23;20400;-93
2022/08/11 00:23:30;;;;;;;2.60;2.40;;;23.60;89.70;;;;;;6159422;23;20433;-91
2022/08/11 00:25:56;;;;;;;2.60;2.40;;;23.60;90.00;;;;;;6159624;23;20957;-91
2022/08/11 00:28:22;;;;;;;2.47;1.70;;;23.50;90.00;;;;;;6158619;23;20604;-91
2022/08/11 00:30:50;;;;;;;2.90;2.13;;;23.40;90.00;;;;;;6158583;23;20883;-95
2022/08/11 00:33:17;;;;;;;2.33;2.13;;;23.40;90.20;;;;;;6160708;23;20448;-95
2022/08/11 00:35:45;;;;;;;2.13;1.93;;;23.30;90.20;;;;;;6157883;23;20397;-94
2022/08/11 00:38:13;;;;;;;4.03;2.00;;;23.30;90.20;;;;;;6162668;23;20377;-91
2022/08/11 00:40:50;;;;;;;3.10;1.90;;;23.20;90.30;;;;;;6159505;23;20456;-91
2022/08/11 00:43:33;;;;;;;3.50;2.33;;;23.20;90.30;;;;;;6161030;23;20366;-95
2022/08/11 00:46:28;;;;;;;2.37;2.17;;;23.10;90.40;;;;;;6158943;23;20421;-90
2022/08/11 00:49:18;;;;;;;2.60;1.77;;;23.00;90.60;;;;;;6174379;23;20437;-96
2022/08/11 00:52:03;;;;;;;1.80;1.70;;;23.00;90.60;;;;;;6160149;23;20509;-96
2022/08/11 00:54:38;;;;;;;2.10;2.00;;;22.90;90.70;;;;;;6158234;23;20476;-91
2022/08/11 00:57:30;;;;;;;2.17;1.97;;;22.90;90.70;;;;;;6158774;23;20854;-91
2022/08/11 01:00:04;;;;;;;2.13;1.93;;;22.80;90.70;;;;;;6105275;23;20428;-96
2022/08/11 01:02:38;;;;;;;2.13;2.00;;;22.80;90.60;;;;;;6160412;23;20402;-91
2022/08/11 01:05:17;;;;;;;2.80;2.10;;;22.70;90.60;;;;;;6159198;23;20853;-95
2022/08/11 01:08:21;;;;;;;2.13;1.93;;;22.70;90.70;;;;;;6134204;23;20392;-96
2022/08/11 01:11:21;;;;;;;3.43;1.83;;;22.60;90.80;;;;;;6161044;23;20393;-95
2022/08/11 01:14:16;;;;;;;2.00;1.80;;;22.50;90.80;;;;;;6134817;23;20417;-95
2022/08/11 01:17:19;;;;;;;2.73;1.90;;;22.40;91.00;;;;;;6134892;23;20867;-95
2022/08/11 01:20:02;;;;;;;2.67;1.83;;;22.40;91.10;;;;;;6135028;23;20761;-91
2022/08/11 01:22:53;;;;;;;2.00;1.63;;;22.30;91.30;;;;;;6159170;23;20398;-91
2022/08/11 01:25:25;;;;;;;3.33;1.77;;;22.20;91.40;;;;;;6146977;23;20421;-91
2022/08/11 01:28:15;;;;;;;1.90;1.60;;;22.20;91.40;;;;;;6142976;23;20381;-91
2022/08/11 01:31:04;;;;;;;3.03;1.97;;;22.20;91.50;;;;;;6135143;23;20424;-96
2022/08/11 01:34:08;;;;;;;1.83;1.67;;;22.10;91.40;;;;;;6106483;23;20469;-91
2022/08/11 01:36:58;;;;;;;2.17;1.97;;;22.10;91.60;;;;;;6134299;23;20389;-95
2022/08/11 01:39:53;;;;;;;5.97;2.03;;;22.00;91.60;;;;;;6160444;23;20432;-95
2022/08/11 01:45:49;;;;;;;1.60;1.50;;;22.00;91.80;;;;;;6161094;23;20408;-91
2022/08/11 01:48:39;;;;;;;1.63;1.53;;;21.90;91.80;;;;;;6161321;23;20368;-95
2022/08/11 01:51:18;;;;;;;2.50;1.60;;;21.90;91.80;;;;;;6135098;23;20423;-95
2022/08/11 01:53:51;;;;;;;1.80;1.70;;;21.80;91.80;;;;;;6134977;23;20750;-90
2022/08/11 01:56:32;;;;;;;2.10;1.80;;;21.80;91.80;;;;;;6135074;23;20852;-90
2022/08/11 01:59:28;;;;;;;2.03;1.93;;;21.80;91.90;;;;;;6134492;23;20401;-95
2022/08/11 02:02:44;;;;;;;4.13;1.40;;;21.70;92.00;;;;;;6159366;23;20421;-90
2022/08/11 02:05:13;;;;;;;2.60;1.70;;;21.70;92.00;;;;;;6160188;23;20417;-90
2022/08/11 02:07:59;;;;;;;1.50;1.40;;;21.60;92.10;;;;;;6160919;23;20362;-95
2022/08/11 02:13:44;;;;;;;1.70;1.60;;;21.50;92.30;;;;;;6179086;23;20431;-96
2022/08/11 02:16:25;;;;;;;1.70;1.60;;;21.50;92.30;;;;;;6135253;23;20436;-91
2022/08/11 02:25:08;;;;;;;1.57;1.47;;;21.30;92.40;;;;;;6160689;23;20428;-95
2022/08/11 02:27:44;;;;;;;1.73;1.47;;;21.30;92.50;;;;;;6132756;23;20397;-90
2022/08/11 02:30:13;;;;;;;1.40;1.30;;;21.20;92.60;;;;;;6134267;23;20724;-91
2022/08/11 02:36:00;;;;;;;3.10;2.03;;;21.10;92.70;;;;;;6160603;23;20408;-93
2022/08/11 02:38:32;;;;;;;4.13;1.60;;;21.10;92.80;;;;;;6158504;23;20389;-96
2022/08/11 02:42:21;;;;;;;1.80;1.70;;;21.00;92.90;;;;;;6158164;23;20431;-95
2022/08/11 02:44:19;;;;;;;1.67;1.57;;;21.00;93.10;;;;;;6158739;23;20401;-91
2022/08/11 02:46:49;;;;;;;3.17;2.07;;;21.00;93.20;;;;;;6135407;23;20377;-90
2022/08/11 02:49:52;;;;;;;1.70;1.60;;;20.90;93.20;;;;;;6138693;23;20463;-90
2022/08/11 02:52:44;;;;;;;7.60;2.40;;;20.80;93.30;;;;;;6158437;23;20427;-96
2022/08/11 02:55:20;;;;;;;2.30;1.60;;;20.80;93.50;;;;;;6133052;23;20428;-91
2022/08/11 02:57:48;;;;;;;1.43;1.33;;;20.80;93.60;;;;;;6132630;23;20393;-90
2022/08/11 03:00:16;;;;;;;1.70;1.60;;;20.70;93.70;;;;;;6132694;23;20425;-90
2022/08/11 03:03:20;;;;;;;1.80;1.70;;;20.70;93.80;;;;;;6132225;23;20451;-90
2022/08/11 03:06:18;;;;;;;1.60;1.50;;;20.60;93.90;;;;;;6094146;23;20437;-91
2022/08/11 03:09:02;;;;;;;2.30;1.77;;;20.60;94.00;;;;;;6157869;23;20420;-95
2022/08/11 03:17:35;;;;;;;3.83;1.80;;;20.60;94.30;;;;;;6128458;23;20404;-91
2022/08/11 03:20:22;;;;;;;1.57;1.47;;;20.50;94.30;;;;;;6157293;23;20428;-95
2022/08/11 03:23:01;;;;;;;1.70;1.60;;;20.50;94.40;;;;;;6157924;23;20435;-95
2022/08/11 03:25:43;;;;;;;1.87;1.70;;;20.50;94.50;;;;;;6159963;23;20424;-91
2022/08/11 03:28:19;;;;;;;2.63;1.97;;;20.50;95.00;;;;;;6159886;23;20415;-95
2022/08/11 03:31:03;;;;;;;2.17;1.97;;;20.40;94.60;;;;;;6158162;23;20412;-92
2022/08/11 03:36:45;;;;;;;1.67;1.57;;;20.40;94.80;;;;;;6162372;23;20363;-90
2022/08/11 03:39:17;;;;;;;2.10;1.90;;;20.40;94.80;;;;;;6159112;23;20405;-95
2022/08/11 03:41:59;;;;;;;2.23;1.50;;;20.40;94.80;;;;;;6159996;23;20466;-90
2022/08/11 03:45:00;;;;;;;2.03;1.80;;;20.30;94.90;;;;;;6159724;23;20740;-91
2022/08/11 03:47:54;;;;;;;2.10;1.70;;;20.30;94.90;;;;;;6156899;23;20810;-94
2022/08/11 03:50:44;;;;;;;2.60;1.87;;;20.30;95.10;;;;;;6156854;23;20438;-95
2022/08/11 03:53:41;;;;;;;1.47;1.30;;;20.30;95.10;;;;;;6157431;23;20431;-90
2022/08/11 03:56:10;;;;;;;1.50;1.40;;;20.20;95.10;;;;;;6156575;23;20507;-96
2022/08/11 03:58:51;;;;;;;2.30;1.73;;;20.20;95.50;;;;;;6156713;23;20405;-96
2022/08/11 04:01:20;;;;;;;1.87;1.67;;;20.20;95.30;;;;;;6162393;23;20415;-90
2022/08/11 04:03:57;;;;;;;1.70;1.60;;;20.20;95.30;;;;;;6157576;23;20416;-95
2022/08/11 04:06:22;;;;;;;1.67;1.57;;;20.20;95.40;;;;;;6157551;23;20506;-96
2022/08/11 04:09:00;;;;;;;3.20;1.40;;;20.20;95.50;;;;;;6155834;23;20404;-96
2022/08/11 04:11:53;;;;;;;2.03;1.93;;;20.20;95.50;;;;;;6156070;23;20154;-90
2022/08/11 04:18:17;;;;;;;2.70;2.17;;;20.20;95.60;;;;;;6167853;23;20420;-91
2022/08/11 04:20:49;;;;;;;2.20;1.97;;;20.20;95.70;;;;;;6156384;23;20395;-90
2022/08/11 04:23:47;;;;;;;2.57;2.00;;;20.20;95.80;;;;;;6155629;23;20396;-90
2022/08/11 04:26:41;;;;;;;1.50;1.40;;;20.20;95.80;;;;;;6155925;23;20883;-95
2022/08/11 04:29:53;;;;;;;1.70;1.57;;;20.20;95.90;;;;;;6156445;23;20440;-96
2022/08/11 04:33:02;;;;;;;1.70;1.60;;;20.20;96.00;;;;;;6159380;23;20421;-90
2022/08/11 04:35:45;;;;;;;2.93;1.87;;;20.20;96.10;;;;;;6159858;23;20468;-91
2022/08/11 04:38:32;;;;;;;4.30;2.10;;;20.20;96.20;;;;;;6159268;23;20394;-90
2022/08/11 04:41:30;;;;;;;2.70;1.40;;;20.20;96.30;;;;;;6158918;23;20440;-94
2022/08/11 04:44:11;;;;;;;1.70;1.60;;;20.20;96.40;;;;;;6161839;23;20772;-91
2022/08/11 04:46:58;;;;;;;2.50;1.97;;;20.20;96.60;;;;;;6157782;23;20382;-91
2022/08/11 05:02:41;;;;;;;2.17;1.97;;;20.40;96.80;;;;;;6156899;23;20878;-95
2022/08/11 05:05:42;;;;;;;2.10;1.90;;;20.40;96.70;;;;;;6142253;23;20432;-95
2022/08/11 05:08:26;;;;;;;6.93;1.93;;;20.50;96.90;;;;;;6095065;23;20388;-92
2022/08/11 05:11:21;;;;;;;1.30;1.20;;;20.50;96.80;;;;;;6130645;23;20401;-96
2022/08/11 05:36:53;;;;;;;1.97;1.40;;;21.30;96.60;;;;;;6161614;23;20413;-96
2022/08/11 05:56:21;;;;;;;2.00;1.33;;;21.90;95.80;;;;;;6156756;23;20420;-96
2022/08/11 05:58:51;;;;;;;1.60;1.40;;;21.90;95.60;;;;;;6157031;23;20428;-96
2022/08/11 06:01:23;;;;;;;4.23;1.73;;;22.00;95.50;;;;;;6132391;23;20465;-96
2022/08/11 06:06:39;;;;;;;1.50;1.40;;;22.10;96.10;;;;;;6164285;23;20428;-96
2022/08/11 06:09:07;;;;;;;4.30;1.70;;;22.20;96.20;;;;;;6138850;23;20504;-92
2022/08/11 06:11:41;;;;;;;1.63;1.53;;;22.30;96.60;;;;;;6135980;23;20396;-91
2022/08/11 06:14:18;;;;;;;1.77;1.63;;;22.30;96.50;;;;;;6136042;23;20409;-96
2022/08/11 06:16:48;;;;;;;1.47;1.30;;;22.40;96.10;;;;;;6133727;23;20954;-96
2022/08/11 06:19:15;;;;;;;2.17;1.97;;;22.50;95.70;;;;;;6132842;23;20417;-92
2022/08/11 06:21:48;;;;;;;1.83;1.50;;;22.50;96.30;;;;;;6134375;23;20389;-92
2022/08/11 06:24:15;;;;;;;4.17;1.50;;;22.60;96.30;;;;;;6135842;23;20424;-92
2022/08/11 06:26:47;;;;;;;2.73;1.50;;;22.70;96.60;;;;;;6134143;23;20413;-92
2022/08/11 06:29:18;;;;;;;1.60;1.50;;;22.70;96.60;;;;;;6159775;23;20389;-96
2022/08/11 06:31:52;;;;;;;1.50;1.30;;;22.80;96.60;;;;;;6134917;23;20373;-96
2022/08/11 06:34:48;;;;;;;1.37;1.20;;;22.90;96.80;;;;;;6134590;23;20421;-96
2022/08/11 06:37:38;;;;;;;3.50;1.63;;;23.00;96.70;;;;;;6135238;23;20388;-96
2022/08/11 06:40:32;;;;;;;2.60;1.73;;;23.00;96.50;;;;;;6137288;23;20421;-96
2022/08/11 06:43:10;;;;;;;3.63;1.53;;;23.10;96.00;;;;;;6141137;23;20394;-93
2022/08/11 06:46:05;;;;;;;1.43;1.20;;;23.20;96.40;;;;;;6173114;23;20401;-96
2022/08/11 06:48:32;;;;;;;1.60;1.47;;;23.20;96.10;;;;;;6143422;23;20409;-96
2022/08/11 06:51:11;;;;;;;1.40;1.30;;;23.30;96.20;;;;;;6159255;23;20478;-96
2022/08/11 06:53:45;;;;;;;1.50;1.40;;;23.40;96.20;;;;;;6134820;23;20454;-96
2022/08/11 07:02:08;;;;;;;1.30;1.20;;;23.60;94.70;;;;;;6156699;23;20443;-93
2022/08/11 07:04:42;;;;;;;1.33;1.20;;;23.60;95.50;;;;;;6132568;23;20468;-96
2022/08/11 07:15:59;;;;;;;1.37;1.20;;;23.80;95.80;;;;;;6166924;23;20476;-96
2022/08/11 07:30:03;;;;;;;1.50;1.40;;;24.10;95.60;;;;;;6158899;23;20415;-93
2022/08/11 07:32:45;;;;;;;1.60;1.43;;;24.10;95.70;;;;;;6157478;23;20448;-96
2022/08/11 07:35:16;;;;;;;1.57;1.33;;;24.10;95.50;;;;;;6167185;23;20418;-96
2022/08/11 07:37:46;;;;;;;1.13;1.07;;;24.20;95.60;;;;;;6166144;23;20376;-96
2022/08/11 07:40:13;;;;;;;1.23;1.10;;;24.20;95.60;;;;;;6174211;23;20422;-96
2022/08/11 07:42:45;;;;;;;1.40;1.30;;;24.20;95.40;;;;;;6163063;23;20409;-96
2022/08/11 07:53:30;;;;;;;1.30;1.10;;;24.40;95.20;;;;;;6161592;23;20454;-93
2022/08/11 07:55:59;;;;;;;1.47;1.37;;;24.50;94.90;;;;;;6155872;23;20495;-92
2022/08/11 08:17:59;;;;;;;1.37;1.27;;;25.00;93.30;;;;;;6157171;23;20387;-92
2022/08/11 08:20:44;;;;;;;1.60;1.33;;;25.00;94.40;;;;;;6132983;23;20420;-96
2022/08/11 08:23:11;;;;;;;1.60;1.50;;;25.10;94.10;;;;;;6136053;23;20392;-92
2022/08/11 08:25:42;;;;;;;1.40;1.30;;;25.20;93.70;;;;;;6133538;23;20459;-92
2022/08/11 08:28:15;;;;;;;1.30;1.20;;;25.30;94.10;;;;;;6140296;23;20397;-96
2022/08/11 08:30:49;;;;;;;0.83;0.83;;;25.30;94.00;;;;;;6130549;23;20404;-92
2022/08/11 08:33:27;;;;;;;1.57;1.30;;;25.30;94.10;;;;;;6154010;23;20446;-91
2022/08/11 08:36:11;;;;;;;1.27;1.17;;;25.30;93.60;;;;;;6131075;23;20435;-96
2022/08/11 08:38:57;;;;;;;1.87;1.30;;;25.40;94.00;;;;;;6155701;23;20435;-92
2022/08/11 08:41:27;;;;;;;1.40;1.20;;;25.50;93.80;;;;;;6139717;23;20374;-96
2022/08/11 08:43:58;;;;;;;1.80;1.27;;;25.50;93.90;;;;;;6158309;23;20385;-96
2022/08/11 08:46:33;;;;;;;1.60;1.47;;;25.50;93.70;;;;;;6135007;23;20377;-93
2022/08/11 08:49:02;;;;;;;1.23;0.90;;;25.60;93.80;;;;;;6130073;23;20404;-92
2022/08/11 08:51:34;;;;;;;1.87;1.20;;;25.50;93.70;;;;;;6128210;23;20407;-93
2022/08/11 08:54:13;;;;;;;1.10;1.00;;;25.60;93.80;;;;;;6146085;23;20447;-96
2022/08/11 08:56:44;;;;;;;0.83;0.83;;;25.60;93.80;;;;;;6147074;23;20381;-96
2022/08/11 08:59:14;;;;;;;3.23;1.40;;;25.60;93.50;;;;;;6155013;23;20487;-92
2022/08/11 09:01:46;;;;;;;2.53;1.07;;;25.60;93.50;;;;;;6127264;23;20373;-91
2022/08/11 09:04:14;;;;;;;2.83;1.20;;;25.70;93.30;;;;;;6158457;23;20403;-96
2022/08/11 09:06:43;;;;;;;1.10;0.90;;;25.80;93.20;;;;;;6161515;23;20428;-96
2022/08/11 09:09:11;;;;;;;1.10;1.00;;;25.90;93.00;;;;;;6156139;23;20874;-92
2022/08/11 09:11:50;;;;;;;1.20;0.90;;;26.00;92.80;;;;;;6155046;23;20397;-92
2022/08/11 09:14:23;;;;;;;5.83;1.13;;;26.00;92.80;;;;;;6154846;23;20439;-90
2022/08/11 09:16:52;;;;;;;4.33;1.50;;;26.00;92.90;;;;;;6152905;23;20366;-92
2022/08/11 09:19:19;;;;;;;1.20;1.10;;;26.20;93.00;;;;;;6154462;23;20452;-92
2022/08/11 09:26:58;;;;;;;1.40;0.90;;;26.20;92.80;;;;;;6156198;23;20708;-96
2022/08/11 09:27:24;;;;;;;1.53;0.80;;;26.40;92.00;;;;;;6166833;23;20385;-92
2022/08/11 09:29:51;;;;;;;1.60;1.50;;;26.50;92.00;;;;;;6155184;23;20417;-92
2022/08/11 09:32:23;;;;;;;1.07;0.97;;;26.50;92.10;;;;;;6156170;23;20516;-92
2022/08/11 09:34:52;;;;;;;3.03;1.50;;;26.60;91.40;;;;;;6160820;23;20441;-96
2022/08/11 09:45:37;;;;;;;1.43;1.20;;;26.90;91.30;;;;;;6155421;23;20475;-92
2022/08/11 09:48:04;;;;;;;1.47;1.33;;;26.90;91.40;;;;;;6154445;23;20745;-92
2022/08/11 09:50:32;;;;;;;1.13;1.03;;;26.80;91.60;;;;;;6151851;23;20484;-92
2022/08/11 09:52:58;;;;;;;1.37;1.17;;;26.80;90.10;;;;;;6152297;23;20440;-92
2022/08/11 09:55:25;;;;;;;2.63;1.70;;;26.80;91.60;;;;;;6158571;23;20416;-92
2022/08/11 10:00:38;;;;;;;1.37;1.10;;;26.70;91.40;;;;;;6155035;23;20484;-95
2022/08/11 10:03:10;;;;;;;1.10;1.00;;;26.60;91.20;;;;;;6155186;23;20780;-95
2022/08/11 10:08:27;;;;;;;2.90;1.27;;;26.60;91.20;;;;;;6154933;23;20396;-95
2022/08/11 10:10:55;;;;;;;1.37;1.13;;;26.60;91.30;;;;;;6157945;23;20457;-95
2022/08/11 10:13:25;;;;;;;1.43;1.20;;;26.60;91.50;;;;;;6152995;23;20437;-96
2022/08/11 10:15:55;;;;;;;2.63;1.47;;;26.60;90.00;;;;;;6155061;23;20397;-96
2022/08/11 10:18:41;;;;;;;1.97;1.40;;;26.60;91.10;;;;;;6153407;23;20386;-95
2022/08/11 10:21:16;;;;;;;1.33;1.20;;;26.60;91.30;;;;;;6152391;23;20455;-95
2022/08/11 10:34:47;;;;;;;2.03;1.90;;;26.70;90.70;;;;;;6153325;23;20420;-93
2022/08/11 10:37:14;;;;;;;1.87;1.33;;;26.70;91.10;;;;;;6152162;23;20710;-93
2022/08/11 10:39:41;;;;;;;1.40;1.30;;;26.80;88.60;;;;;;6149308;23;20906;-92
2022/08/11 10:44:55;;;;;;;1.20;1.10;;;26.80;90.20;;;;;;6159303;23;20416;-93
2022/08/11 10:47:34;;;;;;;1.70;1.40;;;26.90;89.90;;;;;;6165590;23;20409;-94
2022/08/11 11:01:04;;;;;;;1.20;1.00;;;27.40;85.00;;;;;;6148426;23;20595;-93
2022/08/11 11:03:35;;;;;;;1.40;1.20;;;27.50;86.50;;;;;;6149828;23;20385;-96
2022/08/11 11:06:28;;;;;;;2.07;1.50;;;27.50;86.10;;;;;;6149526;23;20437;-94
2022/08/11 11:09:11;;;;;;;1.63;1.20;;;27.70;83.00;;;;;;6149947;23;20409;-93
2022/08/11 11:18:00;;;;;;;4.50;1.20;;;27.80;85.50;;;;;;6158637;23;20872;-95
2022/08/11 11:20:32;;;;;;;1.17;1.00;;;27.80;85.40;;;;;;6149432;23;20432;-92
2022/08/11 11:23:07;;;;;;;1.33;1.23;;;27.90;84.50;;;;;;6151526;23;20428;-95
2022/08/11 11:26:05;;;;;;;1.30;1.20;;;27.90;83.80;;;;;;6155486;23;20416;-96
2022/08/11 11:29:07;;;;;;;0.97;0.97;;;27.90;84.30;;;;;;6152067;23;20413;-95
2022/08/11 11:31:52;;;;;;;1.20;1.10;;;28.00;84.90;;;;;;6151613;23;20436;-93
2022/08/11 11:34:50;;;;;;;1.13;1.03;;;28.00;82.50;;;;;;6154538;23;20929;-93
2022/08/11 11:37:17;;;;;;;0.90;0.80;;;28.00;83.00;;;;;;6108905;23;20397;-93
2022/08/11 11:39:44;;;;;;;1.30;1.00;;;28.00;81.20;;;;;;6153722;23;20591;-92
2022/08/11 11:42:10;;;;;;;1.37;1.27;;;28.10;82.80;;;;;;6162901;23;20740;-94
2022/08/11 11:44:42;;;;;;;1.47;1.10;;;28.00;85.30;;;;;;6155200;23;20421;-95
2022/08/11 11:47:11;;;;;;;1.67;1.00;;;28.10;84.60;;;;;;6159479;23;20761;-93
2022/08/11 11:49:42;;;;;;;1.43;1.10;;;28.10;81.90;;;;;;6152417;23;20956;-93
2022/08/11 11:52:17;;;;;;;1.80;1.10;;;28.20;83.90;;;;;;6157856;23;20545;-93
2022/08/11 11:54:48;;;;;;;1.27;1.17;;;28.20;83.00;;;;;;6152579;23;20471;-95
2022/08/11 12:02:54;;;;;;;3.37;1.50;;;28.30;84.80;;;;;;6157209;23;20454;-95
2022/08/11 12:05:21;;;;;;;1.30;1.20;;;28.20;83.30;;;;;;6151472;23;20443;-92
2022/08/11 12:10:32;;;;;;;1.13;1.00;;;28.20;81.80;;;;;;6158585;23;20598;-95
2022/08/11 12:15:47;;;;;;;2.60;1.30;;;28.20;83.80;;;;;;6159331;23;20432;-95
2022/08/11 12:18:14;;;;;;;1.20;1.10;;;28.20;82.30;;;;;;6156705;23;20379;-94
2022/08/11 12:20:44;;;;;;;2.07;1.07;;;28.20;83.80;;;;;;6155561;23;20409;-93
2022/08/11 12:28:44;;;;;;;3.43;1.30;;;28.20;83.60;;;;;;6155030;23;20470;-95
2022/08/11 12:31:10;;;;;;;1.43;1.27;;;28.30;82.80;;;;;;6151677;23;20419;-95
2022/08/11 12:33:37;;;;;;;2.00;1.37;;;28.30;82.30;;;;;;6157399;23;20472;-93
2022/08/11 12:36:04;;;;;;;1.57;1.00;;;28.30;80.80;;;;;;6154387;23;20410;-93
2022/08/11 12:38:32;;;;;;;1.60;1.00;;;28.30;82.10;;;;;;6158171;23;20393;-96
2022/08/11 12:46:37;;;;;;;1.40;1.10;;;28.30;83.50;;;;;;6157602;23;20366;-96
2022/08/11 12:52:01;;;;;;;1.33;1.20;;;28.20;84.50;;;;;;6146354;23;20412;-95
2022/08/11 12:54:43;;;;;;;1.43;0.83;;;28.20;81.10;;;;;;6147393;23;20426;-93
2022/08/11 13:05:35;;;;;;;1.30;1.20;;;28.10;83.90;;;;;;6155815;23;20945;-93
2022/08/11 13:08:02;;;;;;;1.10;1.00;;;28.20;83.30;;;;;;6129227;23;20411;-94
2022/08/11 13:13:16;;;;;;;1.70;1.37;;;28.20;83.30;;;;;;6157357;23;20428;-90
2022/08/11 13:15:44;;;;;;;0.90;0.90;;;28.20;82.90;;;;;;6131745;23;20407;-93
2022/08/11 13:18:14;;;;;;;5.60;0.90;;;28.30;83.60;;;;;;6130891;23;20405;-93
2022/08/11 13:20:40;;;;;;;1.10;1.00;;;28.30;81.50;;;;;;6130128;23;20429;-94
2022/08/11 13:23:11;;;;;;;1.27;1.07;;;28.30;83.60;;;;;;6128763;23;20379;-94
2022/08/11 13:25:38;;;;;;;0.87;0.87;;;28.30;80.40;;;;;;6129143;23;20415;-94
2022/08/11 13:28:04;;;;;;;2.27;1.30;;;28.30;78.80;;;;;;6152645;23;20407;-93
2022/08/11 13:33:17;;;;;;;1.40;0.87;;;28.40;79.60;;;;;;6155660;23;20465;-92
2022/08/11 13:35:48;;;;;;;1.23;1.10;;;28.50;78.30;;;;;;6127593;23;20427;-95
2022/08/11 13:38:16;;;;;;;1.37;1.20;;;28.50;79.00;;;;;;6127341;23;20458;-90
2022/08/11 13:40:43;;;;;;;2.77;0.93;;;28.60;78.90;;;;;;6153567;23;20494;-91
2022/08/11 13:43:14;;;;;;;1.47;1.27;;;28.60;80.50;;;;;;6131516;23;20381;-91
2022/08/11 13:45:41;;;;;;;0.80;0.80;;;28.60;81.60;;;;;;6126312;23;20944;-95
2022/08/11 13:48:11;;;;;;;1.80;1.50;;;28.60;81.10;;;;;;6153550;23;20447;-93
2022/08/11 13:53:24;;;;;;;1.10;1.00;;;28.60;78.10;;;;;;6156094;23;21563;-95
2022/08/11 13:55:50;;;;;;;1.10;0.93;;;28.50;77.70;;;;;;6136208;23;20487;-92
2022/08/11 13:58:17;;;;;;;1.27;1.10;;;28.50;78.10;;;;;;6127779;23;20395;-91
2022/08/11 14:00:47;;;;;;;1.20;1.10;;;28.40;78.60;;;;;;6125888;23;20469;-91
2022/08/11 14:03:14;;;;;;;1.50;1.10;;;28.40;76.70;;;;;;6151811;23;20390;-91
2022/08/11 14:05:47;;;;;;;0.80;0.80;;;28.40;78.40;;;;;;6130268;23;20438;-95
2022/08/11 14:08:23;;;;;;;1.00;0.80;;;28.40;78.10;;;;;;6147842;23;20415;-91
2022/08/11 14:13:36;;;;;;;2.43;1.20;;;28.30;79.20;;;;;;6149646;23;20404;-95
2022/08/11 14:13:41;;;;;;;0.80;0.80;;;28.40;80.80;;;;;;6157748;23;20456;-95
2022/08/11 14:16:17;;;;;;;1.57;1.20;;;28.40;79.30;;;;;;6155674;23;20434;-91
2022/08/11 14:18:52;;;;;;;0.80;0.80;;;28.40;81.40;;;;;;6154571;23;20931;-91
2022/08/11 14:24:10;;;;;;;1.90;1.40;;;28.40;80.80;;;;;;6151586;23;20368;-91
2022/08/11 14:26:37;;;;;;;1.20;1.10;;;28.40;80.70;;;;;;6148083;23;20400;-92
2022/08/11 14:29:15;;;;;;;1.83;1.03;;;28.50;79.60;;;;;;6151595;23;20375;-96
2022/08/11 14:31:53;;;;;;;2.83;1.00;;;28.50;81.20;;;;;;6149583;23;20409;-96
2022/08/11 14:34:22;;;;;;;0.90;0.90;;;28.50;79.70;;;;;;6150648;23;20898;-91
2022/08/11 14:37:12;;;;;;;1.80;0.93;;;28.40;79.60;;;;;;6148775;23;20761;-90
2022/08/11 14:39:55;;;;;;;1.00;0.90;;;28.40;80.20;;;;;;6153986;23;20405;-95
2022/08/11 14:48:07;;;;;;;1.03;0.90;;;28.30;78.00;;;;;;6151624;23;20404;-92
2022/08/11 14:50:34;;;;;;;0.90;0.90;;;28.20;80.90;;;;;;6152887;23;20460;-91
2022/08/11 14:53:09;;;;;;;2.20;0.90;;;28.20;83.20;;;;;;6154446;23;20431;-96
2022/08/11 14:58:26;;;;;;;3.73;0.80;;;28.20;82.20;;;;;;6164182;23;20865;-91
2022/08/11 15:00:56;;;;;;;1.30;1.20;;;28.20;82.90;;;;;;6152893;23;20420;-89
2022/08/11 15:03:23;;;;;;;1.23;1.00;;;28.10;84.40;;;;;;6151651;23;20381;-90
2022/08/11 15:05:56;;;;;;;1.13;1.00;;;28.00;84.00;;;;;;6155397;23;20445;-92
2022/08/11 15:08:53;;;;;;;2.03;0.90;;;28.00;84.50;;;;;;6154637;23;20389;-91
2022/08/11 15:13:58;;;;;;;1.10;0.70;;;28.00;84.60;;;;;;6152410;23;20481;-94
2022/08/11 15:19:13;;;;;;;1.37;0.73;;;28.00;84.40;;;;;;6153565;23;20469;-94
2022/08/11 15:24:23;;;;;;;1.50;0.97;;;27.90;84.90;;;;;;6151138;23;20798;-94
2022/08/11 15:37:58;;;;;;;1.80;1.10;;;27.80;85.90;;;;;;6161740;23;20412;-91
2022/08/11 15:46:38;;;;;;;2.63;1.10;;;27.90;84.50;;;;;;6157906;23;20487;-90
2022/08/11 15:49:10;;;;;;;0.97;0.87;;;27.90;84.60;;;;;;6155148;23;20396;-94
2022/08/11 15:51:52;;;;;;;1.03;0.90;;;27.80;86.50;;;;;;6155110;23;20400;-94
2022/08/11 15:54:22;;;;;;;3.13;1.10;;;27.80;86.50;;;;;;6155611;23;20430;-90
2022/08/11 15:56:51;;;;;;;1.37;0.80;;;27.70;86.70;;;;;;6156894;23;20480;-91
2022/08/11 16:04:50;;;;;;;1.77;1.00;;;27.70;86.80;;;;;;6157490;23;20392;-95
2022/08/11 16:07:25;;;;;;;2.00;1.27;;;27.70;87.60;;;;;;6105477;23;20875;-93
2022/08/11 16:10:06;;;;;;;1.40;1.17;;;27.60;87.20;;;;;;6106965;23;20413;-95
2022/08/11 16:16:13;;;;;;;0.83;0.83;;;27.60;86.60;;;;;;6112176;23;20438;-93
2022/08/11 16:18:22;;;;;;;0.93;0.93;;;27.60;87.80;;;;;;6128159;23;20892;-93
2022/08/11 16:20:54;;;;;;;1.20;1.10;;;27.50;87.20;;;;;;6128911;23;20410;-91
2022/08/11 16:23:25;;;;;;;1.40;1.30;;;27.50;87.60;;;;;;6103769;23;20453;-91
2022/08/11 16:25:53;;;;;;;1.20;1.00;;;27.50;87.60;;;;;;6103238;23;20418;-94
2022/08/11 16:28:20;;;;;;;1.30;1.20;;;27.50;87.60;;;;;;6102593;23;20378;-91
2022/08/11 16:30:47;;;;;;;3.37;1.70;;;27.40;87.70;;;;;;6102731;23;20414;-94
2022/08/11 16:33:14;;;;;;;1.90;1.70;;;27.40;87.50;;;;;;6127024;23;20432;-93
2022/08/11 16:38:34;;;;;;;1.70;1.60;;;27.40;87.00;;;;;;6126325;23;20421;-93
2022/08/11 16:41:06;;;;;;;1.80;1.67;;;27.40;86.80;;;;;;6097481;23;20448;-92
2022/08/11 16:49:16;;;;;;;1.90;1.70;;;27.40;87.60;;;;;;6128454;23;20406;-91
2022/08/11 16:51:42;;;;;;;4.03;1.90;;;27.30;87.80;;;;;;6129208;23;20391;-91
2022/08/11 16:54:08;;;;;;;2.53;1.57;;;27.30;88.20;;;;;;6101740;23;20437;-92
2022/08/11 16:56:49;;;;;;;1.80;1.40;;;27.30;88.30;;;;;;6103856;23;20398;-94
2022/08/11 16:59:35;;;;;;;1.20;1.10;;;27.20;86.50;;;;;;6102989;23;20581;-91
2022/08/11 17:13:59;;;;;;;2.10;1.30;;;27.10;79.00;;;;;;6156130;23;20443;-91
2022/08/11 17:16:31;;;;;;;6.37;1.90;;;27.10;79.00;;;;;;6156034;23;20435;-93
2022/08/11 17:19:02;;;;;;;2.73;1.33;;;27.10;78.90;;;;;;6131548;23;20401;-94
2022/08/11 17:23:45;;;;;;;2.40;1.63;;;27.10;78.70;;;;;;6154829;23;20843;-92
2022/08/11 17:24:26;;;;;;;2.60;1.23;;;27.00;78.70;;;;;;6159728;23;20413;-93
2022/08/11 17:26:57;;;;;;;2.10;1.37;;;27.00;78.50;;;;;;6128149;23;20467;-92
2022/08/11 17:29:42;;;;;;;1.57;1.20;;;27.00;78.50;;;;;;6126974;23;20421;-93
2022/08/11 17:38:15;;;;;;;1.80;1.43;;;27.00;78.60;;;;;;6153282;23;20941;-92
2022/08/11 17:49:06;;;;;;;2.00;1.67;;;26.90;79.00;;;;;;6157215;23;20416;-92
2022/08/11 17:59:55;;;;;;;2.03;1.40;;;26.80;79.30;;;;;;6157300;23;20477;-92
2022/08/11 18:05:22;;;;;;;1.60;1.50;;;26.80;79.70;;;;;;6157299;23;20444;-93
